Main page
METAR-TAF:

METAR-TAF

Airports :

Alderney Airport

Alderney,

latitude: 49-43N, longitude: 002-12W, elevation: 71 m

Current weather observation

The report was made 4 hours and 1 minutes ago, at 17:20 UTC
Wind 14 kt from the South
Temperature 18°C
Humidity 88%
Pressure 1009 hPa
Visibility 10 km or more
Scattered clouds at a height of 3800 ft

METAR: EGJA 201720Z 19014KT 9999 SCT038 18/16 Q1009

Time: 22:21 (21:21 UTC)

Forecast

The report was made 7 hours and 13 minutes ago, at 14:08 UTC
Forecast valid from 20 at 15 UTC to 20 at 24 UTC
Wind 19 kt from the Southwest
Visibility 10 km or more
Few clouds at a height of 1400 ft
Broken clouds at a height of 3000 ft

TAF: EGJA 201408Z 2015/2024 22019KT 9999 FEW014 BKN030

Weather observations and forecasts of more than 4000 airports (METAR and TAF reports).

The available stations are represented by yellow and red dots on the map.

Hover mouse over dot to see the name of the station.

Then click to see weather observations and forecasts.

To change the map : click on the green buttons with a black cross to zoom in, on the green button with a dash to zoom out, or on the green arrows for adjacent maps.


METAR-TAF: